createdAt,value
2018-03-14T00:02:06.739Z,50.50
2018-03-14T00:04:32.943Z,50.55
2018-03-14T00:06:59.504Z,50.41
2018-03-14T00:09:25.753Z,50.62
2018-03-14T00:11:52.364Z,50.81
2018-03-14T00:14:18.796Z,50.77
2018-03-14T00:16:45.331Z,50.81
2018-03-14T00:19:11.876Z,50.40
2018-03-14T00:21:38.067Z,50.18
2018-03-14T00:24:04.528Z,50.13
2018-03-14T00:26:30.757Z,50.01
2018-03-14T00:28:56.976Z,49.91
2018-03-14T00:31:23.234Z,49.93
2018-03-14T00:33:49.658Z,49.87
2018-03-14T00:36:15.839Z,49.84
2018-03-14T00:38:42.098Z,49.96
2018-03-14T00:41:08.291Z,49.86
2018-03-14T00:43:34.464Z,50.00
2018-03-14T00:46:00.724Z,50.06
2018-03-14T00:48:26.917Z,50.17
2018-03-14T00:50:53.453Z,50.07
2018-03-14T00:53:19.702Z,50.41
2018-03-14T00:55:46.216Z,50.39
2018-03-14T00:58:12.642Z,50.34
2018-03-14T01:00:39.106Z,50.26
2018-03-14T01:03:05.325Z,50.29
2018-03-14T01:05:31.738Z,50.24
2018-03-14T01:07:57.956Z,50.03
2018-03-14T01:10:24.140Z,50.01
2018-03-14T01:12:50.332Z,50.31
2018-03-14T01:15:16.855Z,50.82
2018-03-14T01:17:43.034Z,50.77
2018-03-14T01:20:09.365Z,50.79
2018-03-14T01:22:35.561Z,50.75
2018-03-14T01:25:01.794Z,50.70
2018-03-14T01:27:27.998Z,50.71
2018-03-14T01:29:54.199Z,50.68
2018-03-14T01:32:20.417Z,50.58
2018-03-14T01:34:46.598Z,50.63
2018-03-14T01:37:12.800Z,50.67
2018-03-14T01:39:39.238Z,50.67
2018-03-14T01:42:05.778Z,50.74
2018-03-14T01:44:31.944Z,50.75
2018-03-14T01:46:58.108Z,50.75
2018-03-14T01:49:24.337Z,50.63
2018-03-14T01:51:50.522Z,50.68
2018-03-14T01:54:17.019Z,50.64
2018-03-14T01:56:43.199Z,50.58
2018-03-14T01:59:09.380Z,50.56
2018-03-14T02:01:35.907Z,50.59
2018-03-14T02:04:02.098Z,50.59
2018-03-14T02:06:28.566Z,50.59
2018-03-14T02:08:54.749Z,50.62
2018-03-14T02:11:21.009Z,50.73
2018-03-14T02:13:47.186Z,50.88
2018-03-14T02:16:13.370Z,50.91
2018-03-14T02:18:39.576Z,51.05
2018-03-14T02:21:05.808Z,51.11
2018-03-14T02:23:32.004Z,51.11
2018-03-14T02:25:58.208Z,51.13
2018-03-14T02:28:24.447Z,51.19
2018-03-14T02:30:50.655Z,51.20
2018-03-14T02:33:17.180Z,51.17
2018-03-14T02:35:43.420Z,51.25
2018-03-14T02:38:09.584Z,51.32
2018-03-14T02:40:35.756Z,52.02
2018-03-14T02:43:01.987Z,52.07
2018-03-14T02:45:28.159Z,52.24
2018-03-14T02:47:54.655Z,52.06
2018-03-14T02:50:21.186Z,52.16
2018-03-14T02:52:47.339Z,52.10
2018-03-14T02:55:13.513Z,52.06
2018-03-14T02:57:39.728Z,52.15
2018-03-14T03:00:05.888Z,52.05
2018-03-14T03:02:32.040Z,52.13
2018-03-14T03:04:58.239Z,52.20
2018-03-14T03:07:24.403Z,52.17
2018-03-14T03:09:50.915Z,52.11
2018-03-14T03:12:17.086Z,52.08
2018-03-14T03:14:43.234Z,52.53
2018-03-14T03:17:09.420Z,52.71
2018-03-14T03:19:35.614Z,52.72
2018-03-14T03:22:01.830Z,52.49
2018-03-14T03:24:34.321Z,52.46
2018-03-14T03:27:00.756Z,52.28
2018-03-14T03:29:26.972Z,52.25
2018-03-14T03:31:53.130Z,52.20
2018-03-14T03:34:19.540Z,52.25
2018-03-14T03:36:45.739Z,52.67
2018-03-14T03:39:11.903Z,52.38
2018-03-14T03:41:38.063Z,52.05
2018-03-14T03:44:04.263Z,51.99
2018-03-14T03:46:30.460Z,51.92
2018-03-14T03:48:56.674Z,51.73
2018-03-14T03:51:22.843Z,51.78
2018-03-14T03:53:49.000Z,51.67
2018-03-14T03:56:15.183Z,51.59
2018-03-14T03:58:41.401Z,51.48
2018-03-14T04:01:07.578Z,51.53
2018-03-14T04:03:33.739Z,51.69
2018-03-14T04:05:59.933Z,52.04
2018-03-14T04:08:26.089Z,52.00
2018-03-14T04:10:52.301Z,51.93
2018-03-14T04:13:18.459Z,51.88
2018-03-14T04:15:44.907Z,51.65
2018-03-14T04:18:11.124Z,51.59
2018-03-14T04:20:37.295Z,52.23
2018-03-14T04:23:03.551Z,52.23
2018-03-14T04:25:29.744Z,52.13
2018-03-14T04:27:55.923Z,52.02
2018-03-14T04:30:22.129Z,51.89
2018-03-14T04:32:48.345Z,52.04
2018-03-14T04:35:14.519Z,51.90
2018-03-14T04:37:40.960Z,51.89
2018-03-14T04:40:13.138Z,51.57
2018-03-14T04:42:39.296Z,51.62
2018-03-14T04:45:05.479Z,51.50
2018-03-14T04:47:31.621Z,51.70
2018-03-14T04:49:58.142Z,51.66
2018-03-14T04:52:24.347Z,51.64
2018-03-14T04:54:50.515Z,51.60
2018-03-14T04:57:16.666Z,51.54
2018-03-14T04:59:42.855Z,51.55
2018-03-14T05:02:09.021Z,51.68
2018-03-14T05:04:35.513Z,51.90
2018-03-14T05:07:01.659Z,51.76
2018-03-14T05:09:27.808Z,51.81
2018-03-14T05:11:54.025Z,51.84
2018-03-14T05:14:20.269Z,52.12
2018-03-14T05:16:46.438Z,52.10
2018-03-14T05:19:12.607Z,51.82
2018-03-14T05:21:39.108Z,51.56
2018-03-14T05:24:05.300Z,51.55
2018-03-14T05:26:31.490Z,52.35
2018-03-14T05:28:57.889Z,52.44
2018-03-14T05:31:24.112Z,52.52
2018-03-14T05:33:50.281Z,52.17
2018-03-14T05:36:16.455Z,52.14
2018-03-14T05:38:42.636Z,51.88
2018-03-14T05:41:08.848Z,51.21
2018-03-14T05:43:35.024Z,50.95
2018-03-14T05:46:01.266Z,50.86
2018-03-14T05:48:27.531Z,50.75
2018-03-14T05:50:53.702Z,50.65
2018-03-14T05:53:19.888Z,50.58
2018-03-14T05:55:46.058Z,50.53
2018-03-14T05:58:12.290Z,50.50
2018-03-14T06:00:38.494Z,50.31
2018-03-14T06:03:04.662Z,50.20
2018-03-14T06:05:30.838Z,50.19
2018-03-14T06:07:57.031Z,50.14
2018-03-14T06:10:23.188Z,50.09
2018-03-14T06:12:49.334Z,50.08
2018-03-14T06:15:15.511Z,50.00
2018-03-14T06:17:41.942Z,50.02
2018-03-14T06:20:08.117Z,51.33
2018-03-14T06:22:34.311Z,50.63
2018-03-14T06:25:00.468Z,50.52
2018-03-14T06:27:26.678Z,51.14
2018-03-14T06:29:52.876Z,50.95
2018-03-14T06:32:19.052Z,51.13
2018-03-14T06:34:45.546Z,51.13
2018-03-14T06:37:11.787Z,51.07
2018-03-14T06:39:37.920Z,51.13
2018-03-14T06:42:04.104Z,50.90
2018-03-14T06:44:30.276Z,50.64
2018-03-14T06:46:56.447Z,50.60
2018-03-14T06:49:22.664Z,50.46
2018-03-14T06:51:48.830Z,50.49
2018-03-14T06:54:14.979Z,50.15
2018-03-14T06:56:41.426Z,49.69
2018-03-14T06:59:19.888Z,49.45
2018-03-14T07:01:58.262Z,49.38
2018-03-14T07:04:36.528Z,49.25
2018-03-14T07:07:02.718Z,49.54
2018-03-14T07:09:28.871Z,49.44
2018-03-14T07:11:55.357Z,49.36
2018-03-14T07:14:21.577Z,49.31
2018-03-14T07:16:47.746Z,49.23
2018-03-14T07:19:14.210Z,49.24
2018-03-14T07:21:40.399Z,49.21
2018-03-14T07:24:06.587Z,49.18
2018-03-14T07:26:32.854Z,49.14
2018-03-14T07:28:59.083Z,49.08
2018-03-14T07:31:25.226Z,48.97
2018-03-14T07:33:51.360Z,48.96
2018-03-14T07:36:17.764Z,48.93
2018-03-14T07:38:43.957Z,48.96
2018-03-14T07:41:10.160Z,48.92
2018-03-14T07:43:36.311Z,48.84
2018-03-14T07:46:02.532Z,48.83
2018-03-14T07:48:28.946Z,48.75
2018-03-14T07:50:55.384Z,48.68
2018-03-14T07:53:21.570Z,48.56
2018-03-14T07:55:47.794Z,48.45
2018-03-14T07:58:13.944Z,48.42
2018-03-14T08:00:40.391Z,48.16
2018-03-14T08:03:06.603Z,48.01
2018-03-14T08:05:32.781Z,47.90
2018-03-14T08:07:59.281Z,47.91
2018-03-14T08:10:25.485Z,47.79
2018-03-14T08:12:51.660Z,47.73
2018-03-14T08:15:17.828Z,47.61
2018-03-14T08:17:44.059Z,47.64
2018-03-14T08:20:10.233Z,47.66
2018-03-14T08:22:36.429Z,47.62
2018-03-14T08:25:02.614Z,47.54
2018-03-14T08:27:28.818Z,47.40
2018-03-14T08:29:55.093Z,47.40
2018-03-14T08:32:21.349Z,47.36
2018-03-14T08:34:47.577Z,47.28
2018-03-14T08:37:13.801Z,47.14
2018-03-14T08:39:39.960Z,47.11
2018-03-14T08:42:06.180Z,47.09
2018-03-14T08:44:32.353Z,46.97
2018-03-14T08:46:58.826Z,46.89
2018-03-14T08:49:25.012Z,46.93
2018-03-14T08:51:51.490Z,46.98
2018-03-14T08:54:17.729Z,46.99
2018-03-14T08:56:44.153Z,46.99
2018-03-14T08:59:10.325Z,46.93
2018-03-14T09:01:36.746Z,46.97
2018-03-14T09:04:02.912Z,46.96
2018-03-14T09:06:29.180Z,46.93
2018-03-14T09:08:55.599Z,46.91
2018-03-14T09:11:21.801Z,46.88
2018-03-14T09:13:48.261Z,46.88
2018-03-14T09:16:14.485Z,46.81
2018-03-14T09:18:40.919Z,46.73
2018-03-14T09:21:07.080Z,46.66
2018-03-14T09:23:33.270Z,46.62
2018-03-14T09:25:59.632Z,46.63
2018-03-14T09:28:25.881Z,46.55
2018-03-14T09:30:52.055Z,46.54
2018-03-14T09:33:18.509Z,46.54
2018-03-14T09:35:44.727Z,46.39
2018-03-14T09:38:11.157Z,46.22
2018-03-14T09:40:37.387Z,46.03
2018-03-14T09:43:03.555Z,45.91
2018-03-14T09:45:29.708Z,46.04
2018-03-14T09:47:55.897Z,45.99
2018-03-14T09:50:22.078Z,45.92
2018-03-14T09:52:48.270Z,45.77
2018-03-14T09:55:14.429Z,45.85
2018-03-14T09:57:40.635Z,45.96
2018-03-14T10:00:06.880Z,45.97
2018-03-14T10:02:33.055Z,45.89
2018-03-14T10:04:59.255Z,45.84
2018-03-14T10:07:25.435Z,45.85
2018-03-14T10:09:51.597Z,45.87
2018-03-14T10:12:17.915Z,45.85
2018-03-14T10:14:44.104Z,45.86
2018-03-14T10:17:10.282Z,45.94
2018-03-14T10:19:36.483Z,46.01
2018-03-14T10:22:02.723Z,46.06
2018-03-14T10:24:28.893Z,46.05
2018-03-14T10:26:55.054Z,46.04
2018-03-14T10:29:21.637Z,46.11
2018-03-14T10:31:47.815Z,46.08
2018-03-14T10:34:14.022Z,45.99
2018-03-14T10:36:40.197Z,46.05
2018-03-14T10:39:06.456Z,46.08
2018-03-14T10:41:32.615Z,46.07
2018-03-14T10:43:58.770Z,46.05
2018-03-14T10:46:24.947Z,46.03
2018-03-14T10:48:51.155Z,46.02
2018-03-14T10:51:17.360Z,46.01
2018-03-14T10:53:43.519Z,46.01
2018-03-14T10:56:09.757Z,45.94
2018-03-14T10:58:36.028Z,45.87
2018-03-14T11:01:08.340Z,45.87
2018-03-14T11:03:35.697Z,45.84
2018-03-14T11:06:10.319Z,45.77
2018-03-14T11:08:36.546Z,45.71
2018-03-14T11:11:02.694Z,45.64
2018-03-14T11:13:28.870Z,45.58
2018-03-14T11:15:55.142Z,45.59
2018-03-14T11:18:21.313Z,45.57
2018-03-14T11:23:20.301Z,45.59
2018-03-14T11:25:46.512Z,45.83
2018-03-14T11:28:12.867Z,46.07
2018-03-14T11:30:39.134Z,46.16
2018-03-14T11:33:05.306Z,45.97
2018-03-14T11:35:31.487Z,45.99
2018-03-14T11:37:58.043Z,45.97
2018-03-14T11:40:24.231Z,45.93
2018-03-14T11:42:50.397Z,45.92
2018-03-14T11:45:16.619Z,45.88
2018-03-14T11:47:42.794Z,45.91
2018-03-14T11:50:08.955Z,45.94
2018-03-14T11:52:35.152Z,46.16
2018-03-14T11:55:01.646Z,46.33
2018-03-14T11:57:27.881Z,46.45
2018-03-14T11:59:54.061Z,46.32
2018-03-14T12:02:20.246Z,46.11
2018-03-14T12:04:46.533Z,46.35
2018-03-14T12:07:18.762Z,46.51
2018-03-14T12:09:45.054Z,46.66
2018-03-14T12:12:11.208Z,46.65
2018-03-14T12:14:37.412Z,46.67
2018-03-14T12:17:03.732Z,46.65
2018-03-14T12:19:29.918Z,46.63
2018-03-14T12:21:56.498Z,46.60
2018-03-14T12:24:22.681Z,46.57
2018-03-14T12:26:48.879Z,46.72
2018-03-14T12:29:15.103Z,47.24
2018-03-14T12:31:41.614Z,47.29
2018-03-14T12:34:07.794Z,47.40
2018-03-14T12:36:34.378Z,47.38
2018-03-14T12:39:00.553Z,47.33
2018-03-14T12:41:26.730Z,47.31
2018-03-14T12:43:52.963Z,47.20
2018-03-14T12:46:19.122Z,47.01
2018-03-14T12:48:45.622Z,47.14
2018-03-14T12:51:11.784Z,47.14
2018-03-14T12:53:38.022Z,47.22
2018-03-14T12:56:04.195Z,47.22
2018-03-14T12:58:30.354Z,47.26
2018-03-14T13:00:56.594Z,47.27
2018-03-14T13:03:22.770Z,47.24
2018-03-14T13:05:48.990Z,47.13
2018-03-14T13:08:15.148Z,47.09
2018-03-14T13:10:41.330Z,47.04
2018-03-14T13:13:07.519Z,47.00
2018-03-14T13:15:34.030Z,46.80
2018-03-14T13:18:00.433Z,46.50
2018-03-14T13:20:26.638Z,46.41
2018-03-14T13:22:52.861Z,46.36
2018-03-14T13:25:19.353Z,46.34
2018-03-14T13:27:45.615Z,46.29
2018-03-14T13:30:11.826Z,46.26
2018-03-14T13:32:38.027Z,46.24
2018-03-14T13:35:04.201Z,46.23
2018-03-14T13:37:30.453Z,46.22
2018-03-14T13:39:56.610Z,46.20
2018-03-14T13:42:22.827Z,46.14
2018-03-14T13:44:48.991Z,46.12
2018-03-14T13:47:15.198Z,46.06
2018-03-14T13:49:41.738Z,46.06
2018-03-14T13:52:07.962Z,46.07
2018-03-14T13:54:34.136Z,46.08
2018-03-14T13:57:00.319Z,46.05
2018-03-14T13:59:26.504Z,46.03
2018-03-14T14:01:52.731Z,46.06
2018-03-14T14:04:18.912Z,46.06
2018-03-14T14:06:45.117Z,46.07
2018-03-14T14:09:11.346Z,46.10
2018-03-14T14:11:37.507Z,46.13
2018-03-14T14:14:03.692Z,46.15
2018-03-14T14:16:29.868Z,46.15
2018-03-14T14:18:56.063Z,46.14
2018-03-14T14:21:22.266Z,46.13
2018-03-14T14:23:48.446Z,46.15
2018-03-14T14:26:14.953Z,46.15
2018-03-14T14:28:41.175Z,46.18
2018-03-14T14:31:07.462Z,46.17
2018-03-14T14:33:33.636Z,46.20
2018-03-14T14:36:00.173Z,46.24
2018-03-14T14:38:26.709Z,46.27
2018-03-14T14:40:53.240Z,46.28
2018-03-14T14:43:19.646Z,46.27
2018-03-14T14:45:45.827Z,46.25
2018-03-14T14:48:12.039Z,46.27
2018-03-14T14:50:38.240Z,46.28
2018-03-14T14:53:04.450Z,46.26
2018-03-14T14:55:30.635Z,46.26
2018-03-14T14:57:57.117Z,46.25
2018-03-14T15:00:23.293Z,46.54
2018-03-14T15:02:49.474Z,46.79
2018-03-14T15:05:15.702Z,47.00
2018-03-14T15:07:41.887Z,47.03
2018-03-14T15:10:08.228Z,47.11
2018-03-14T15:12:34.740Z,47.07
2018-03-14T15:15:00.943Z,47.03
2018-03-14T15:17:27.146Z,47.02
2018-03-14T15:19:53.351Z,47.04
2018-03-14T15:22:19.551Z,47.06
2018-03-14T15:24:45.778Z,46.93
2018-03-14T15:27:12.009Z,46.78
2018-03-14T15:29:38.158Z,46.68
2018-03-14T15:32:04.447Z,46.74
2018-03-14T15:34:30.623Z,46.78
2018-03-14T15:36:56.783Z,46.83
2018-03-14T15:39:22.971Z,46.80
2018-03-14T15:41:49.189Z,46.80
2018-03-14T15:44:15.368Z,46.81
2018-03-14T15:46:41.531Z,46.79
2018-03-14T15:49:07.753Z,46.82
2018-03-14T15:51:33.957Z,46.82
2018-03-14T15:54:00.392Z,46.86
2018-03-14T15:56:26.618Z,46.89
2018-03-14T15:58:52.795Z,46.88
2018-03-14T16:01:18.951Z,46.89
2018-03-14T16:03:52.236Z,46.93
2018-03-14T16:06:18.402Z,46.94
2018-03-14T16:08:44.560Z,46.98
2018-03-14T16:11:10.773Z,46.98
2018-03-14T16:13:36.950Z,46.95
2018-03-14T16:16:03.122Z,46.90
2018-03-14T16:18:29.639Z,46.89
2018-03-14T16:20:55.818Z,46.91
2018-03-14T16:23:22.049Z,46.89
2018-03-14T16:25:48.208Z,46.88
2018-03-14T16:28:14.394Z,46.92
2018-03-14T16:30:40.598Z,46.93
2018-03-14T16:33:07.109Z,46.90
2018-03-14T16:35:33.272Z,46.90
2018-03-14T16:37:59.484Z,46.90
2018-03-14T16:40:25.631Z,46.90
2018-03-14T16:42:52.143Z,46.88
2018-03-14T16:45:18.335Z,46.89
2018-03-14T16:47:44.507Z,46.90
2018-03-14T16:50:10.758Z,46.94
2018-03-14T16:52:36.990Z,46.92
2018-03-14T16:55:03.169Z,46.90
2018-03-14T16:57:29.342Z,46.93
2018-03-14T16:59:55.567Z,46.92
2018-03-14T17:02:21.746Z,46.91
2018-03-14T17:04:47.945Z,46.87
2018-03-14T17:07:14.152Z,46.87
2018-03-14T17:09:40.335Z,46.89
2018-03-14T17:12:06.758Z,46.86
2018-03-14T17:14:32.993Z,46.84
2018-03-14T17:16:59.440Z,46.82
2018-03-14T17:19:25.674Z,46.86
2018-03-14T17:21:51.858Z,46.85
2018-03-14T17:24:18.031Z,46.83
2018-03-14T17:26:44.539Z,46.82
2018-03-14T17:29:10.973Z,46.81
2018-03-14T17:31:37.172Z,46.82
2018-03-14T17:34:03.362Z,46.82
2018-03-14T17:36:29.519Z,46.80
2018-03-14T17:38:55.720Z,46.85
2018-03-14T17:41:21.894Z,46.87
2018-03-14T17:43:48.109Z,46.86
2018-03-14T17:46:14.332Z,46.89
2018-03-14T17:48:40.502Z,46.93
2018-03-14T17:51:06.674Z,46.94
2018-03-14T17:53:32.856Z,46.94
2018-03-14T17:55:59.070Z,46.96
2018-03-14T17:58:25.237Z,46.94
2018-03-14T18:00:51.394Z,46.92
2018-03-14T18:03:17.858Z,46.92
2018-03-14T18:05:44.024Z,46.91
2018-03-14T18:08:10.210Z,46.89
2018-03-14T18:10:36.640Z,46.87
2018-03-14T18:13:02.836Z,46.85
2018-03-14T18:15:28.998Z,46.84
2018-03-14T18:17:55.220Z,46.83
2018-03-14T18:20:21.375Z,46.88
2018-03-14T18:22:47.543Z,46.89
2018-03-14T18:25:13.733Z,46.88
2018-03-14T18:27:39.904Z,46.88
2018-03-14T18:30:06.112Z,46.91
2018-03-14T18:32:32.591Z,46.87
2018-03-14T18:34:58.848Z,46.87
2018-03-14T18:37:25.070Z,46.90
2018-03-14T18:39:51.478Z,46.91
2018-03-14T18:42:17.680Z,46.89
2018-03-14T18:44:43.834Z,46.83
2018-03-14T18:47:09.997Z,46.81
2018-03-14T18:49:36.495Z,46.81
2018-03-14T18:52:02.671Z,46.79
2018-03-14T18:54:28.862Z,46.79
2018-03-14T18:56:55.040Z,46.81
2018-03-14T18:59:21.250Z,46.79
2018-03-14T19:01:47.416Z,46.78
2018-03-14T19:04:13.580Z,46.82
2018-03-14T19:06:39.774Z,46.84
2018-03-14T19:09:05.991Z,46.83
2018-03-14T19:11:32.148Z,46.82
2018-03-14T19:13:58.315Z,46.82
2018-03-14T19:16:24.556Z,47.00
2018-03-14T19:18:51.034Z,47.72
2018-03-14T19:21:17.573Z,47.83
2018-03-14T19:23:43.994Z,47.84
2018-03-14T19:26:10.216Z,47.88
2018-03-14T19:28:36.474Z,48.07
2018-03-14T19:31:02.672Z,48.13
2018-03-14T19:33:29.014Z,48.14
2018-03-14T19:35:55.299Z,48.15
2018-03-14T19:38:21.512Z,48.20
2018-03-14T19:40:47.685Z,48.18
2018-03-14T19:43:13.934Z,48.25
2018-03-14T19:45:40.096Z,48.27
2018-03-14T19:48:06.273Z,48.30
2018-03-14T19:50:32.725Z,48.33
2018-03-14T19:52:58.883Z,48.31
2018-03-14T19:55:25.126Z,48.27
2018-03-14T19:57:51.367Z,48.19
2018-03-14T20:00:17.527Z,48.17
2018-03-14T20:02:44.058Z,48.45
2018-03-14T20:05:10.245Z,48.03
2018-03-14T20:07:36.414Z,48.10
2018-03-14T20:10:02.622Z,47.94
2018-03-14T20:12:28.793Z,47.94
2018-03-14T20:14:54.999Z,47.98
2018-03-14T20:17:21.163Z,47.94
2018-03-14T20:19:47.655Z,47.90
2018-03-14T20:22:13.844Z,47.99
2018-03-14T20:24:39.996Z,48.11
2018-03-14T20:27:06.201Z,47.90
2018-03-14T20:29:32.402Z,47.68
2018-03-14T20:31:58.556Z,48.24
2018-03-14T20:34:24.715Z,48.42
2018-03-14T20:36:50.947Z,48.34
2018-03-14T20:39:17.108Z,48.47
2018-03-14T20:41:43.285Z,48.63
2018-03-14T20:44:09.484Z,48.67
2018-03-14T20:46:35.667Z,48.86
2018-03-14T20:49:01.857Z,48.50
2018-03-14T20:51:28.192Z,48.25
2018-03-14T20:53:54.646Z,48.35
2018-03-14T20:56:20.828Z,48.44
2018-03-14T20:58:47.016Z,48.36
2018-03-14T21:01:13.415Z,48.58
2018-03-14T21:03:39.604Z,48.50
2018-03-14T21:06:05.777Z,48.42
2018-03-14T21:08:31.971Z,48.33
2018-03-14T21:10:58.119Z,48.20
2018-03-14T21:13:24.318Z,48.28
2018-03-14T21:15:50.802Z,48.27
2018-03-14T21:18:17.233Z,48.33
2018-03-14T21:20:43.779Z,48.23
2018-03-14T21:23:09.962Z,48.28
2018-03-14T21:25:36.209Z,48.26
2018-03-14T21:28:02.398Z,48.31
2018-03-14T21:30:28.561Z,48.24
2018-03-14T21:32:54.725Z,48.28
2018-03-14T21:35:20.947Z,48.30
2018-03-14T21:37:47.143Z,48.33
2018-03-14T21:40:13.297Z,48.34
2018-03-14T21:42:39.485Z,48.47
2018-03-14T21:45:05.653Z,48.52
2018-03-14T21:47:31.858Z,48.43
2018-03-14T21:49:58.047Z,48.46
2018-03-14T21:52:24.550Z,48.50
2018-03-14T21:54:51.062Z,48.45
2018-03-14T21:57:18.243Z,48.52
2018-03-14T21:59:44.413Z,48.53
2018-03-14T22:02:10.621Z,48.51
2018-03-14T22:04:36.878Z,48.51
2018-03-14T22:07:03.047Z,48.47
2018-03-14T22:09:29.201Z,48.47
2018-03-14T22:11:55.385Z,48.47
2018-03-14T22:14:21.567Z,48.46
2018-03-14T22:16:47.752Z,48.43
2018-03-14T22:19:13.907Z,48.47
2018-03-14T22:21:40.105Z,48.47
2018-03-14T22:26:39.164Z,49.15
2018-03-14T22:29:05.340Z,49.17
2018-03-14T22:31:31.544Z,49.12
2018-03-14T22:33:57.687Z,49.11
2018-03-14T22:36:23.926Z,49.11
2018-03-14T22:38:50.128Z,49.27
2018-03-14T22:41:16.311Z,49.38
2018-03-14T22:43:42.474Z,49.58
2018-03-14T22:46:09.023Z,49.50
2018-03-14T22:48:35.222Z,49.59
2018-03-14T22:51:01.397Z,49.87
2018-03-14T22:53:27.916Z,50.15
2018-03-14T22:55:54.095Z,50.17
2018-03-14T22:58:20.265Z,50.40
2018-03-14T23:00:46.806Z,50.32
2018-03-14T23:03:12.974Z,50.21
2018-03-14T23:05:39.461Z,50.01
2018-03-14T23:08:05.633Z,50.05
2018-03-14T23:10:31.784Z,49.99
2018-03-14T23:12:57.970Z,50.17
2018-03-14T23:15:24.136Z,50.41
2018-03-14T23:17:50.603Z,50.61
2018-03-14T23:20:16.751Z,50.56
2018-03-14T23:22:42.957Z,50.51
2018-03-14T23:25:09.126Z,51.32
2018-03-14T23:27:35.337Z,50.57
2018-03-14T23:30:01.530Z,49.96
2018-03-14T23:32:27.693Z,50.43
2018-03-14T23:34:53.928Z,50.65
2018-03-14T23:37:20.362Z,50.56
2018-03-14T23:39:46.574Z,50.59
2018-03-14T23:42:12.803Z,50.57
2018-03-14T23:44:38.978Z,50.81
2018-03-14T23:47:05.169Z,50.58
2018-03-14T23:49:31.389Z,50.64
2018-03-14T23:51:57.551Z,50.60
2018-03-14T23:54:23.718Z,50.68
2018-03-14T23:56:49.942Z,50.55
2018-03-14T23:59:16.114Z,50.50
